sensor_id;sensor_type;location;lat;lon;timestamp;pressure;altitude;pressure_sealevel;temperature;humidity
69351;BME280;57106;51.446;-2.606;2023-03-15T00:04:53;101488.74;;;5.09;77.37
69351;BME280;57106;51.446;-2.606;2023-03-15T00:09:45;101485.02;;;5.17;76.61
69351;BME280;57106;51.446;-2.606;2023-03-15T00:12:10;101481.93;;;5.30;76.03
69351;BME280;57106;51.446;-2.606;2023-03-15T00:14:36;101480.37;;;5.32;75.91
69351;BME280;57106;51.446;-2.606;2023-03-15T00:17:01;101484.38;;;5.20;76.43
69351;BME280;57106;51.446;-2.606;2023-03-15T00:19:27;101482.17;;;5.15;76.45
69351;BME280;57106;51.446;-2.606;2023-03-15T00:21:58;101491.62;;;5.07;76.82
69351;BME280;57106;51.446;-2.606;2023-03-15T00:24:19;101497.64;;;4.91;77.18
69351;BME280;57106;51.446;-2.606;2023-03-15T00:26:45;101502.45;;;4.98;76.78
69351;BME280;57106;51.446;-2.606;2023-03-15T00:34:04;101493.97;;;4.73;77.67
69351;BME280;57106;51.446;-2.606;2023-03-15T00:36:27;101494.35;;;4.72;77.60
69351;BME280;57106;51.446;-2.606;2023-03-15T00:38:55;101495.08;;;4.56;77.70
69351;BME280;57106;51.446;-2.606;2023-03-15T00:41:20;101495.47;;;4.42;78.03
69351;BME280;57106;51.446;-2.606;2023-03-15T00:43:54;101492.18;;;4.41;78.07
69351;BME280;57106;51.446;-2.606;2023-03-15T00:46:11;101498.63;;;4.46;77.87
69351;BME280;57106;51.446;-2.606;2023-03-15T00:48:36;101497.70;;;4.51;77.90
69351;BME280;57106;51.446;-2.606;2023-03-15T00:51:04;101495.89;;;4.58;77.62
69351;BME280;57106;51.446;-2.606;2023-03-15T00:53:28;101499.32;;;4.52;78.29
69351;BME280;57106;51.446;-2.606;2023-03-15T00:55:54;101498.49;;;4.64;77.98
69351;BME280;57106;51.446;-2.606;2023-03-15T00:58:20;101500.25;;;4.67;77.97
69351;BME280;57106;51.446;-2.606;2023-03-15T01:00:45;101500.90;;;4.66;77.79
69351;BME280;57106;51.446;-2.606;2023-03-15T01:03:11;101496.99;;;4.64;77.58
69351;BME280;57106;51.446;-2.606;2023-03-15T01:05:37;101499.90;;;4.74;77.28
69351;BME280;57106;51.446;-2.606;2023-03-15T01:08:03;101504.30;;;4.72;77.10
69351;BME280;57106;51.446;-2.606;2023-03-15T01:10:28;101512.10;;;4.62;77.00
69351;BME280;57106;51.446;-2.606;2023-03-15T01:12:54;101513.93;;;4.51;78.18
69351;BME280;57106;51.446;-2.606;2023-03-15T01:15:20;101517.49;;;4.42;78.74
69351;BME280;57106;51.446;-2.606;2023-03-15T01:17:46;101521.23;;;4.34;78.56
69351;BME280;57106;51.446;-2.606;2023-03-15T01:20:13;101522.78;;;4.33;78.70
69351;BME280;57106;51.446;-2.606;2023-03-15T01:22:36;101520.85;;;4.38;78.21
69351;BME280;57106;51.446;-2.606;2023-03-15T01:25:03;101525.39;;;4.37;77.87
69351;BME280;57106;51.446;-2.606;2023-03-15T01:27:30;101535.42;;;4.42;78.61
69351;BME280;57106;51.446;-2.606;2023-03-15T01:29:54;101539.11;;;4.34;78.09
69351;BME280;57106;51.446;-2.606;2023-03-15T01:32:19;101541.50;;;4.49;77.76
69351;BME280;57106;51.446;-2.606;2023-03-15T01:34:53;101536.73;;;4.33;77.71
69351;BME280;57106;51.446;-2.606;2023-03-15T01:37:10;101534.09;;;4.34;77.15
69351;BME280;57106;51.446;-2.606;2023-03-15T01:51:50;101534.59;;;4.41;76.66
69351;BME280;57106;51.446;-2.606;2023-03-15T02:28:14;101551.56;;;3.70;77.19
69351;BME280;57106;51.446;-2.606;2023-03-15T02:30:38;101550.62;;;3.69;77.35
69351;BME280;57106;51.446;-2.606;2023-03-15T02:33:06;101541.63;;;3.75;76.93
69351;BME280;57106;51.446;-2.606;2023-03-15T02:42:56;101534.41;;;3.75;77.93
69351;BME280;57106;51.446;-2.606;2023-03-15T02:45:12;101531.24;;;3.61;77.98
69351;BME280;57106;51.446;-2.606;2023-03-15T03:55:41;101558.66;;;3.71;77.97
69351;BME280;57106;51.446;-2.606;2023-03-15T04:10:14;101549.81;;;3.61;77.76
69351;BME280;57106;51.446;-2.606;2023-03-15T04:17:38;101556.05;;;3.50;77.87
69351;BME280;57106;51.446;-2.606;2023-03-15T04:44:15;101559.46;;;3.22;78.43
69351;BME280;57106;51.446;-2.606;2023-03-15T05:01:24;101555.24;;;3.07;78.65
69351;BME280;57106;51.446;-2.606;2023-03-15T05:10:58;101564.18;;;3.88;75.92
69351;BME280;57106;51.446;-2.606;2023-03-15T05:18:20;101570.88;;;3.44;76.82
69351;BME280;57106;51.446;-2.606;2023-03-15T05:20:40;101576.87;;;3.52;76.76
69351;BME280;57106;51.446;-2.606;2023-03-15T05:23:06;101580.66;;;3.78;75.94
69351;BME280;57106;51.446;-2.606;2023-03-15T05:25:31;101584.78;;;3.65;76.15
69351;BME280;57106;51.446;-2.606;2023-03-15T05:27:57;101583.64;;;3.39;76.97
69351;BME280;57106;51.446;-2.606;2023-03-15T05:30:23;101583.23;;;3.48;77.24
69351;BME280;57106;51.446;-2.606;2023-03-15T05:32:49;101589.79;;;3.57;76.47
69351;BME280;57106;51.446;-2.606;2023-03-15T05:35:15;101590.41;;;3.53;76.64
69351;BME280;57106;51.446;-2.606;2023-03-15T05:37:40;101590.62;;;3.43;76.62
69351;BME280;57106;51.446;-2.606;2023-03-15T05:40:07;101586.36;;;3.22;76.55
69351;BME280;57106;51.446;-2.606;2023-03-15T05:42:32;101583.94;;;3.11;76.85
69351;BME280;57106;51.446;-2.606;2023-03-15T05:44:58;101588.49;;;3.19;76.64
69351;BME280;57106;51.446;-2.606;2023-03-15T05:47:24;101589.11;;;3.11;77.04
69351;BME280;57106;51.446;-2.606;2023-03-15T05:49:50;101588.13;;;2.93;77.22
69351;BME280;57106;51.446;-2.606;2023-03-15T05:52:16;101586.38;;;3.05;78.14
69351;BME280;57106;51.446;-2.606;2023-03-15T05:54:41;101587.43;;;2.93;78.08
69351;BME280;57106;51.446;-2.606;2023-03-15T05:57:07;101588.99;;;2.94;78.43
69351;BME280;57106;51.446;-2.606;2023-03-15T05:59:33;101594.03;;;3.04;77.83
69351;BME280;57106;51.446;-2.606;2023-03-15T06:01:59;101591.50;;;3.02;78.04
69351;BME280;57106;51.446;-2.606;2023-03-15T06:04:26;101589.53;;;3.01;78.55
69351;BME280;57106;51.446;-2.606;2023-03-15T06:06:50;101587.84;;;3.01;78.13
69351;BME280;57106;51.446;-2.606;2023-03-15T06:09:16;101590.41;;;2.96;78.74
69351;BME280;57106;51.446;-2.606;2023-03-15T06:11:41;101597.59;;;2.91;78.66
69351;BME280;57106;51.446;-2.606;2023-03-15T06:14:07;101599.91;;;2.88;79.37
69351;BME280;57106;51.446;-2.606;2023-03-15T06:16:33;101601.74;;;2.96;79.70
69351;BME280;57106;51.446;-2.606;2023-03-15T06:18:58;101600.75;;;3.11;78.72
69351;BME280;57106;51.446;-2.606;2023-03-15T06:21:24;101600.36;;;3.27;78.50
69351;BME280;57106;51.446;-2.606;2023-03-15T06:23:49;101600.42;;;3.24;78.72
69351;BME280;57106;51.446;-2.606;2023-03-15T06:26:15;101600.50;;;3.29;77.90
69351;BME280;57106;51.446;-2.606;2023-03-15T06:28:40;101604.66;;;3.28;77.06
69351;BME280;57106;51.446;-2.606;2023-03-15T06:31:06;101603.36;;;3.01;78.16
69351;BME280;57106;51.446;-2.606;2023-03-15T06:33:31;101605.53;;;3.04;77.56
69351;BME280;57106;51.446;-2.606;2023-03-15T06:35:57;101609.39;;;3.00;76.87
69351;BME280;57106;51.446;-2.606;2023-03-15T06:38:24;101612.41;;;2.99;77.50
69351;BME280;57106;51.446;-2.606;2023-03-15T06:40:49;101614.89;;;3.03;77.14
69351;BME280;57106;51.446;-2.606;2023-03-15T06:43:15;101618.30;;;2.92;77.48
69351;BME280;57106;51.446;-2.606;2023-03-15T06:45:40;101619.44;;;2.93;77.83
69351;BME280;57106;51.446;-2.606;2023-03-15T06:48:06;101623.36;;;3.12;77.32
69351;BME280;57106;51.446;-2.606;2023-03-15T06:50:32;101624.93;;;3.02;77.70
69351;BME280;57106;51.446;-2.606;2023-03-15T06:52:58;101624.15;;;3.17;77.62
69351;BME280;57106;51.446;-2.606;2023-03-15T06:55:25;101627.83;;;3.05;77.75
69351;BME280;57106;51.446;-2.606;2023-03-15T06:57:49;101631.48;;;3.11;77.41
69351;BME280;57106;51.446;-2.606;2023-03-15T07:00:16;101631.44;;;3.24;77.40
69351;BME280;57106;51.446;-2.606;2023-03-15T07:02:42;101633.88;;;3.42;76.76
69351;BME280;57106;51.446;-2.606;2023-03-15T07:05:07;101634.45;;;3.52;76.44
69351;BME280;57106;51.446;-2.606;2023-03-15T07:07:32;101629.77;;;3.46;76.87
69351;BME280;57106;51.446;-2.606;2023-03-15T07:09:58;101626.75;;;3.55;76.34
69351;BME280;57106;51.446;-2.606;2023-03-15T07:12:24;101619.13;;;3.42;76.54
69351;BME280;57106;51.446;-2.606;2023-03-15T07:14:50;101619.01;;;3.34;76.77
69351;BME280;57106;51.446;-2.606;2023-03-15T07:17:16;101617.91;;;3.45;76.72
69351;BME280;57106;51.446;-2.606;2023-03-15T07:19:42;101618.43;;;3.44;77.09
69351;BME280;57106;51.446;-2.606;2023-03-15T07:22:07;101626.66;;;3.75;76.45
69351;BME280;57106;51.446;-2.606;2023-03-15T07:24:33;101629.39;;;3.89;75.81
69351;BME280;57106;51.446;-2.606;2023-03-15T07:26:59;101632.16;;;3.76;76.33
69351;BME280;57106;51.446;-2.606;2023-03-15T07:29:24;101634.65;;;3.64;76.79
69351;BME280;57106;51.446;-2.606;2023-03-15T07:31:50;101632.57;;;3.62;77.70
69351;BME280;57106;51.446;-2.606;2023-03-15T07:34:16;101627.34;;;3.97;75.34
69351;BME280;57106;51.446;-2.606;2023-03-15T07:36:41;101625.30;;;3.81;76.42
69351;BME280;57106;51.446;-2.606;2023-03-15T07:39:09;101624.37;;;3.97;76.65
69351;BME280;57106;51.446;-2.606;2023-03-15T07:41:32;101625.69;;;4.15;76.06
69351;BME280;57106;51.446;-2.606;2023-03-15T07:44:02;101624.99;;;4.10;76.06
69351;BME280;57106;51.446;-2.606;2023-03-15T07:46:24;101622.73;;;4.29;75.92
69351;BME280;57106;51.446;-2.606;2023-03-15T07:48:50;101619.29;;;4.28;76.13
69351;BME280;57106;51.446;-2.606;2023-03-15T07:51:15;101618.70;;;4.21;75.40
69351;BME280;57106;51.446;-2.606;2023-03-15T07:53:41;101621.68;;;4.41;76.08
69351;BME280;57106;51.446;-2.606;2023-03-15T07:56:12;101622.40;;;4.77;74.45
69351;BME280;57106;51.446;-2.606;2023-03-15T07:58:32;101619.71;;;4.86;73.35
69351;BME280;57106;51.446;-2.606;2023-03-15T08:00:58;101617.69;;;4.79;73.98
69351;BME280;57106;51.446;-2.606;2023-03-15T08:03:23;101618.94;;;4.73;73.99
69351;BME280;57106;51.446;-2.606;2023-03-15T08:05:48;101615.85;;;4.82;74.27
69351;BME280;57106;51.446;-2.606;2023-03-15T08:08:15;101622.04;;;4.72;74.43
69351;BME280;57106;51.446;-2.606;2023-03-15T08:10:45;101621.47;;;4.72;74.52
69351;BME280;57106;51.446;-2.606;2023-03-15T08:13:06;101619.58;;;4.80;74.19
69351;BME280;57106;51.446;-2.606;2023-03-15T08:15:34;101619.66;;;5.11;73.08
69351;BME280;57106;51.446;-2.606;2023-03-15T08:18:04;101614.32;;;5.36;71.79
69351;BME280;57106;51.446;-2.606;2023-03-15T08:20:22;101615.05;;;5.44;70.56
69351;BME280;57106;51.446;-2.606;2023-03-15T08:22:49;101614.21;;;5.40;70.34
69351;BME280;57106;51.446;-2.606;2023-03-15T08:25:15;101614.16;;;5.51;70.54
69351;BME280;57106;51.446;-2.606;2023-03-15T08:27:41;101620.46;;;5.24;71.76
69351;BME280;57106;51.446;-2.606;2023-03-15T08:30:05;101619.29;;;5.39;70.97
69351;BME280;57106;51.446;-2.606;2023-03-15T08:32:31;101621.59;;;5.25;71.79
69351;BME280;57106;51.446;-2.606;2023-03-15T08:35:01;101618.37;;;5.15;71.85
69351;BME280;57106;51.446;-2.606;2023-03-15T08:37:22;101617.00;;;5.20;71.90
69351;BME280;57106;51.446;-2.606;2023-03-15T08:39:49;101609.26;;;5.25;72.05
69351;BME280;57106;51.446;-2.606;2023-03-15T08:49:31;101610.89;;;5.57;72.56
69351;BME280;57106;51.446;-2.606;2023-03-15T08:51:57;101613.44;;;5.69;72.45
69351;BME280;57106;51.446;-2.606;2023-03-15T08:54:22;101609.45;;;5.79;72.41
69351;BME280;57106;51.446;-2.606;2023-03-15T08:56:48;101608.53;;;5.79;72.70
69351;BME280;57106;51.446;-2.606;2023-03-15T08:59:14;101605.30;;;5.93;71.66
69351;BME280;57106;51.446;-2.606;2023-03-15T09:01:40;101605.91;;;5.81;72.27
69351;BME280;57106;51.446;-2.606;2023-03-15T09:04:05;101609.54;;;5.88;72.07
69351;BME280;57106;51.446;-2.606;2023-03-15T09:06:31;101612.72;;;5.93;72.31
69351;BME280;57106;51.446;-2.606;2023-03-15T09:08:56;101611.82;;;6.04;72.00
69351;BME280;57106;51.446;-2.606;2023-03-15T09:11:22;101614.03;;;6.17;71.56
69351;BME280;57106;51.446;-2.606;2023-03-15T09:13:48;101615.84;;;6.19;71.61
69351;BME280;57106;51.446;-2.606;2023-03-15T09:16:14;101614.66;;;6.20;71.53
69351;BME280;57106;51.446;-2.606;2023-03-15T09:18:40;101615.29;;;6.15;71.94
69351;BME280;57106;51.446;-2.606;2023-03-15T09:21:05;101615.05;;;6.11;72.17
69351;BME280;57106;51.446;-2.606;2023-03-15T09:23:31;101618.00;;;6.13;72.29
69351;BME280;57106;51.446;-2.606;2023-03-15T09:25:56;101616.95;;;6.41;71.69
69351;BME280;57106;51.446;-2.606;2023-03-15T09:28:22;101615.89;;;6.56;71.00
69351;BME280;57106;51.446;-2.606;2023-03-15T09:30:49;101616.70;;;6.76;70.93
69351;BME280;57106;51.446;-2.606;2023-03-15T09:33:13;101615.58;;;6.84;70.46
69351;BME280;57106;51.446;-2.606;2023-03-15T09:35:41;101618.96;;;6.99;69.67
69351;BME280;57106;51.446;-2.606;2023-03-15T09:38:05;101613.62;;;7.10;69.47
69351;BME280;57106;51.446;-2.606;2023-03-15T09:40:32;101612.79;;;6.99;69.44
69351;BME280;57106;51.446;-2.606;2023-03-15T09:43:02;101608.67;;;6.92;70.55
69351;BME280;57106;51.446;-2.606;2023-03-15T09:45:42;101605.73;;;6.99;68.98
69351;BME280;57106;51.446;-2.606;2023-03-15T09:47:53;101603.88;;;7.28;68.62
69351;BME280;57106;51.446;-2.606;2023-03-15T09:50:18;101598.01;;;7.41;68.72
69351;BME280;57106;51.446;-2.606;2023-03-15T09:52:40;101594.21;;;7.51;69.14
69351;BME280;57106;51.446;-2.606;2023-03-15T09:55:11;101598.80;;;7.68;68.20
69351;BME280;57106;51.446;-2.606;2023-03-15T09:57:36;101597.99;;;7.69;68.78
69351;BME280;57106;51.446;-2.606;2023-03-15T09:59:58;101594.49;;;7.62;68.11
69351;BME280;57106;51.446;-2.606;2023-03-15T10:02:23;101595.82;;;7.96;67.85
69351;BME280;57106;51.446;-2.606;2023-03-15T10:04:48;101594.47;;;7.90;68.29
69351;BME280;57106;51.446;-2.606;2023-03-15T10:07:14;101597.48;;;7.65;68.92
69351;BME280;57106;51.446;-2.606;2023-03-15T10:09:39;101595.03;;;8.21;68.43
69351;BME280;57106;51.446;-2.606;2023-03-15T10:12:07;101595.79;;;8.28;68.27
69351;BME280;57106;51.446;-2.606;2023-03-15T10:14:45;101594.18;;;8.41;68.27
69351;BME280;57106;51.446;-2.606;2023-03-15T10:16:55;101595.20;;;8.37;67.25
69351;BME280;57106;51.446;-2.606;2023-03-15T10:19:28;101590.56;;;8.32;68.96
69351;BME280;57106;51.446;-2.606;2023-03-15T10:21:56;101590.58;;;8.49;68.44
69351;BME280;57106;51.446;-2.606;2023-03-15T10:24:19;101587.24;;;8.82;68.45
69351;BME280;57106;51.446;-2.606;2023-03-15T10:26:38;101580.27;;;8.60;67.76
69351;BME280;57106;51.446;-2.606;2023-03-15T10:29:13;101578.31;;;8.95;68.47
69351;BME280;57106;51.446;-2.606;2023-03-15T10:31:33;101576.44;;;8.91;68.44
69351;BME280;57106;51.446;-2.606;2023-03-15T10:33:55;101577.84;;;8.84;67.55
69351;BME280;57106;51.446;-2.606;2023-03-15T10:36:21;101577.95;;;9.03;66.64
69351;BME280;57106;51.446;-2.606;2023-03-15T10:38:46;101581.86;;;9.22;66.62
69351;BME280;57106;51.446;-2.606;2023-03-15T10:41:12;101577.12;;;9.05;67.11
69351;BME280;57106;51.446;-2.606;2023-03-15T10:43:37;101577.01;;;9.34;66.54
69351;BME280;57106;51.446;-2.606;2023-03-15T10:46:04;101574.15;;;9.36;66.27
69351;BME280;57106;51.446;-2.606;2023-03-15T10:48:29;101571.92;;;9.60;64.88
69351;BME280;57106;51.446;-2.606;2023-03-15T10:50:54;101566.62;;;9.74;64.80
69351;BME280;57106;51.446;-2.606;2023-03-15T10:53:19;101560.16;;;9.59;65.36
69351;BME280;57106;51.446;-2.606;2023-03-15T10:55:45;101566.16;;;9.80;64.55
69351;BME280;57106;51.446;-2.606;2023-03-15T10:58:19;101563.51;;;9.43;65.82
69351;BME280;57106;51.446;-2.606;2023-03-15T11:00:36;101569.49;;;9.74;65.49
69351;BME280;57106;51.446;-2.606;2023-03-15T11:03:03;101574.67;;;9.71;65.22
69351;BME280;57106;51.446;-2.606;2023-03-15T11:05:40;101581.57;;;9.89;64.54
69351;BME280;57106;51.446;-2.606;2023-03-15T11:07:54;101580.78;;;9.83;64.31
69351;BME280;57106;51.446;-2.606;2023-03-15T11:10:21;101580.16;;;9.88;63.94
69351;BME280;57106;51.446;-2.606;2023-03-15T11:12:43;101576.73;;;10.03;63.54
69351;BME280;57106;51.446;-2.606;2023-03-15T11:15:11;101573.07;;;9.92;63.79
69351;BME280;57106;51.446;-2.606;2023-03-15T11:17:41;101568.91;;;10.20;63.29
69351;BME280;57106;51.446;-2.606;2023-03-15T11:20:02;101571.13;;;10.40;62.73
69351;BME280;57106;51.446;-2.606;2023-03-15T11:22:26;101572.05;;;10.12;63.19
69351;BME280;57106;51.446;-2.606;2023-03-15T11:24:52;101568.03;;;10.13;63.25
69351;BME280;57106;51.446;-2.606;2023-03-15T11:27:20;101567.06;;;10.26;62.98
69351;BME280;57106;51.446;-2.606;2023-03-15T11:29:50;101562.69;;;10.22;63.80
69351;BME280;57106;51.446;-2.606;2023-03-15T11:32:13;101559.03;;;9.99;63.67
69351;BME280;57106;51.446;-2.606;2023-03-15T11:34:38;101558.65;;;10.00;64.18
69351;BME280;57106;51.446;-2.606;2023-03-15T11:37:02;101552.77;;;10.35;63.81
69351;BME280;57106;51.446;-2.606;2023-03-15T11:39:33;101551.49;;;10.33;64.10
69351;BME280;57106;51.446;-2.606;2023-03-15T11:41:55;101552.99;;;10.49;63.29
69351;BME280;57106;51.446;-2.606;2023-03-15T11:44:24;101555.79;;;10.49;63.96
69351;BME280;57106;51.446;-2.606;2023-03-15T11:51:34;101549.71;;;10.58;63.35
69351;BME280;57106;51.446;-2.606;2023-03-15T11:54:07;101542.71;;;10.66;64.01
69351;BME280;57106;51.446;-2.606;2023-03-15T11:59:00;101546.36;;;10.76;64.47
69351;BME280;57106;51.446;-2.606;2023-03-15T12:01:24;101546.76;;;10.89;63.92
69351;BME280;57106;51.446;-2.606;2023-03-15T12:20:41;101537.25;;;10.99;66.16
69351;BME280;57106;51.446;-2.606;2023-03-15T12:23:18;101541.58;;;10.95;65.31
69351;BME280;57106;51.446;-2.606;2023-03-15T12:25:34;101539.89;;;10.82;65.66
69351;BME280;57106;51.446;-2.606;2023-03-15T12:27:56;101533.23;;;10.71;66.55
69351;BME280;57106;51.446;-2.606;2023-03-15T12:30:29;101527.45;;;10.65;67.44
69351;BME280;57106;51.446;-2.606;2023-03-15T12:35:19;101522.44;;;11.07;66.56
69351;BME280;57106;51.446;-2.606;2023-03-15T13:04:20;101463.87;;;10.97;65.46
69351;BME280;57106;51.446;-2.606;2023-03-15T13:06:53;101457.01;;;10.82;65.54
69351;BME280;57106;51.446;-2.606;2023-03-15T13:09:19;101451.91;;;10.43;65.72
69351;BME280;57106;51.446;-2.606;2023-03-15T13:11:38;101448.49;;;10.45;65.98
69351;BME280;57106;51.446;-2.606;2023-03-15T13:14:11;101444.84;;;10.20;67.00
69351;BME280;57106;51.446;-2.606;2023-03-15T13:19:00;101445.41;;;10.43;67.65
69351;BME280;57106;51.446;-2.606;2023-03-15T13:21:25;101438.47;;;10.76;67.06
69351;BME280;57106;51.446;-2.606;2023-03-15T13:31:12;101433.34;;;10.50;67.47
69351;BME280;57106;51.446;-2.606;2023-03-15T13:38:25;101419.01;;;10.84;67.08
69351;BME280;57106;51.446;-2.606;2023-03-15T13:40:45;101421.24;;;10.99;66.46
69351;BME280;57106;51.446;-2.606;2023-03-15T13:57:50;101413.52;;;11.22;65.98
69351;BME280;57106;51.446;-2.606;2023-03-15T15:03:17;101298.26;;;10.19;69.24
69351;BME280;57106;51.446;-2.606;2023-03-15T16:15:56;101211.23;;;9.69;71.52
69351;BME280;57106;51.446;-2.606;2023-03-15T16:18:21;101204.99;;;9.88;70.43
69351;BME280;57106;51.446;-2.606;2023-03-15T16:20:47;101203.28;;;9.82;70.90
69351;BME280;57106;51.446;-2.606;2023-03-15T16:23:16;101201.50;;;9.79;70.66
69351;BME280;57106;51.446;-2.606;2023-03-15T16:25:39;101190.87;;;9.46;70.43
69351;BME280;57106;51.446;-2.606;2023-03-15T16:28:04;101189.87;;;9.48;69.86
69351;BME280;57106;51.446;-2.606;2023-03-15T16:30:30;101185.83;;;9.62;69.79
69351;BME280;57106;51.446;-2.606;2023-03-15T16:32:55;101181.64;;;9.55;70.02
69351;BME280;57106;51.446;-2.606;2023-03-15T16:35:21;101176.04;;;9.72;70.12
69351;BME280;57106;51.446;-2.606;2023-03-15T16:37:46;101169.00;;;9.73;70.12
69351;BME280;57106;51.446;-2.606;2023-03-15T16:40:18;101168.28;;;9.79;69.69
69351;BME280;57106;51.446;-2.606;2023-03-15T16:42:37;101162.28;;;9.24;70.91
69351;BME280;57106;51.446;-2.606;2023-03-15T16:45:10;101153.11;;;9.36;71.28
69351;BME280;57106;51.446;-2.606;2023-03-15T16:47:29;101145.25;;;9.16;71.51
69351;BME280;57106;51.446;-2.606;2023-03-15T16:49:54;101138.44;;;9.06;72.67
69351;BME280;57106;51.446;-2.606;2023-03-15T16:52:20;101152.45;;;9.36;71.65
69351;BME280;57106;51.446;-2.606;2023-03-15T16:54:46;101148.92;;;9.45;71.36
69351;BME280;57106;51.446;-2.606;2023-03-15T16:59:36;101135.33;;;9.14;72.05
69351;BME280;57106;51.446;-2.606;2023-03-15T17:02:04;101128.38;;;9.07;72.51
69351;BME280;57106;51.446;-2.606;2023-03-15T17:04:28;101123.46;;;9.13;72.57
69351;BME280;57106;51.446;-2.606;2023-03-15T17:06:53;101121.86;;;8.95;73.07
69351;BME280;57106;51.446;-2.606;2023-03-15T17:09:21;101120.98;;;8.85;73.91
69351;BME280;57106;51.446;-2.606;2023-03-15T17:11:46;101122.83;;;8.74;74.68
69351;BME280;57106;51.446;-2.606;2023-03-15T17:14:14;101103.14;;;8.59;74.95
69351;BME280;57106;51.446;-2.606;2023-03-15T17:16:35;101103.13;;;8.60;75.19
69351;BME280;57106;51.446;-2.606;2023-03-15T17:19:01;101088.84;;;8.70;74.77
69351;BME280;57106;51.446;-2.606;2023-03-15T17:21:27;101091.71;;;8.79;74.10
69351;BME280;57106;51.446;-2.606;2023-03-15T17:23:52;101092.82;;;8.93;74.20
69351;BME280;57106;51.446;-2.606;2023-03-15T17:26:20;101099.47;;;9.04;74.12
69351;BME280;57106;51.446;-2.606;2023-03-15T17:28:44;101093.74;;;8.99;73.14
69351;BME280;57106;51.446;-2.606;2023-03-15T17:31:12;101096.33;;;8.93;73.21
69351;BME280;57106;51.446;-2.606;2023-03-15T17:33:34;101093.04;;;8.83;73.59
69351;BME280;57106;51.446;-2.606;2023-03-15T17:36:00;101084.91;;;8.85;73.52
69351;BME280;57106;51.446;-2.606;2023-03-15T17:38:29;101075.91;;;8.75;73.63
69351;BME280;57106;51.446;-2.606;2023-03-15T17:40:52;101076.27;;;8.64;74.06
69351;BME280;57106;51.446;-2.606;2023-03-15T17:43:17;101067.42;;;8.70;74.25
69351;BME280;57106;51.446;-2.606;2023-03-15T17:45:43;101075.05;;;8.61;75.07
69351;BME280;57106;51.446;-2.606;2023-03-15T17:48:08;101073.48;;;8.76;74.46
69351;BME280;57106;51.446;-2.606;2023-03-15T17:50:34;101073.74;;;8.75;74.39
69351;BME280;57106;51.446;-2.606;2023-03-15T17:53:01;101068.92;;;8.78;74.87
69351;BME280;57106;51.446;-2.606;2023-03-15T17:55:27;101068.32;;;8.73;74.75
69351;BME280;57106;51.446;-2.606;2023-03-15T17:57:51;101061.59;;;8.81;74.91
69351;BME280;57106;51.446;-2.606;2023-03-15T18:00:17;101060.23;;;8.71;75.06
69351;BME280;57106;51.446;-2.606;2023-03-15T18:02:42;101055.12;;;8.78;75.02
69351;BME280;57106;51.446;-2.606;2023-03-15T18:05:13;101060.59;;;8.80;74.48
69351;BME280;57106;51.446;-2.606;2023-03-15T18:07:33;101062.34;;;8.87;74.81
69351;BME280;57106;51.446;-2.606;2023-03-15T18:09:58;101056.11;;;8.78;75.38
69351;BME280;57106;51.446;-2.606;2023-03-15T18:12:24;101061.78;;;8.70;76.20
69351;BME280;57106;51.446;-2.606;2023-03-15T18:14:49;101050.24;;;8.84;76.08
69351;BME280;57106;51.446;-2.606;2023-03-15T18:17:15;101020.60;;;8.70;76.71
69351;BME280;57106;51.446;-2.606;2023-03-15T18:19:41;101030.94;;;8.50;77.55
69351;BME280;57106;51.446;-2.606;2023-03-15T18:22:11;101036.22;;;8.81;76.92
69351;BME280;57106;51.446;-2.606;2023-03-15T18:24:33;101046.49;;;8.80;77.11
69351;BME280;57106;51.446;-2.606;2023-03-15T18:26:58;101056.03;;;8.92;76.87
69351;BME280;57106;51.446;-2.606;2023-03-15T18:29:23;101053.01;;;8.77;77.63
69351;BME280;57106;51.446;-2.606;2023-03-15T18:31:50;101045.10;;;8.79;77.77
69351;BME280;57106;51.446;-2.606;2023-03-15T18:34:15;101045.30;;;8.69;78.27
69351;BME280;57106;51.446;-2.606;2023-03-15T18:36:40;101043.86;;;8.70;78.45
69351;BME280;57106;51.446;-2.606;2023-03-15T18:39:06;101052.88;;;8.73;79.35
69351;BME280;57106;51.446;-2.606;2023-03-15T18:41:32;101048.55;;;8.90;78.78
69351;BME280;57106;51.446;-2.606;2023-03-15T18:43:57;101039.95;;;8.74;79.43
69351;BME280;57106;51.446;-2.606;2023-03-15T18:46:24;101034.43;;;8.76;79.83
69351;BME280;57106;51.446;-2.606;2023-03-15T18:48:51;101040.39;;;8.81;79.76
69351;BME280;57106;51.446;-2.606;2023-03-15T18:51:15;101037.31;;;8.76;80.28
69351;BME280;57106;51.446;-2.606;2023-03-15T18:53:42;101018.76;;;8.93;79.98
69351;BME280;57106;51.446;-2.606;2023-03-15T18:56:06;101022.50;;;8.93;79.78
69351;BME280;57106;51.446;-2.606;2023-03-15T18:58:31;101017.75;;;9.05;79.30
69351;BME280;57106;51.446;-2.606;2023-03-15T19:00:57;101019.04;;;8.80;80.04
69351;BME280;57106;51.446;-2.606;2023-03-15T19:03:22;101021.26;;;8.79;80.85
69351;BME280;57106;51.446;-2.606;2023-03-15T19:05:47;101013.98;;;8.85;80.72
69351;BME280;57106;51.446;-2.606;2023-03-15T19:08:13;101010.33;;;9.10;79.80
69351;BME280;57106;51.446;-2.606;2023-03-15T19:10:38;101009.97;;;9.16;79.46
69351;BME280;57106;51.446;-2.606;2023-03-15T19:13:04;101004.89;;;9.05;79.73
69351;BME280;57106;51.446;-2.606;2023-03-15T19:15:30;101013.24;;;8.87;80.38
69351;BME280;57106;51.446;-2.606;2023-03-15T19:17:55;101021.52;;;8.83;80.81
69351;BME280;57106;51.446;-2.606;2023-03-15T19:20:22;101010.44;;;8.97;80.83
69351;BME280;57106;51.446;-2.606;2023-03-15T19:22:47;101009.62;;;8.97;80.57
69351;BME280;57106;51.446;-2.606;2023-03-15T19:25:13;101007.64;;;9.10;80.60
69351;BME280;57106;51.446;-2.606;2023-03-15T19:27:38;101003.27;;;9.09;80.29
69351;BME280;57106;51.446;-2.606;2023-03-15T19:30:05;100997.47;;;9.09;80.79
69351;BME280;57106;51.446;-2.606;2023-03-15T19:32:30;100998.94;;;9.22;80.41
69351;BME280;57106;51.446;-2.606;2023-03-15T19:34:55;100989.17;;;9.11;80.71
69351;BME280;57106;51.446;-2.606;2023-03-15T19:37:20;100988.12;;;9.05;80.94
69351;BME280;57106;51.446;-2.606;2023-03-15T20:01:37;100953.19;;;9.27;81.09
69351;BME280;57106;51.446;-2.606;2023-03-15T20:04:07;100950.65;;;9.34;80.78
69351;BME280;57106;51.446;-2.606;2023-03-15T20:11:20;100950.00;;;9.50;80.03